sensor_id;sensor_type;location;lat;lon;timestamp;P1;durP1;ratioP1;P2;durP2;ratioP2
25721;SDS011;13578;53.450;15.496;2023-05-20T00:00:35;2.95;;;1.92;;
25721;SDS011;13578;53.450;15.496;2023-05-20T00:03:35;10.45;;;1.88;;
25721;SDS011;13578;53.450;15.496;2023-05-20T00:06:36;3.83;;;2.10;;
25721;SDS011;13578;53.450;15.496;2023-05-20T00:09:38;7.35;;;2.38;;
25721;SDS011;13578;53.450;15.496;2023-05-20T00:12:38;4.97;;;2.15;;
25721;SDS011;13578;53.450;15.496;2023-05-20T00:15:39;6.47;;;3.33;;
25721;SDS011;13578;53.450;15.496;2023-05-20T00:18:39;2.38;;;2.05;;
25721;SDS011;13578;53.450;15.496;2023-05-20T00:21:40;4.25;;;2.80;;
25721;SDS011;13578;53.450;15.496;2023-05-20T00:24:41;2.38;;;2.03;;
25721;SDS011;13578;53.450;15.496;2023-05-20T00:27:41;7.13;;;2.50;;
25721;SDS011;13578;53.450;15.496;2023-05-20T00:30:42;3.28;;;2.30;;
25721;SDS011;13578;53.450;15.496;2023-05-20T00:33:42;4.45;;;2.55;;
25721;SDS011;13578;53.450;15.496;2023-05-20T00:36:43;6.78;;;2.30;;
25721;SDS011;13578;53.450;15.496;2023-05-20T00:39:44;5.20;;;2.40;;
25721;SDS011;13578;53.450;15.496;2023-05-20T00:42:44;6.22;;;2.65;;
25721;SDS011;13578;53.450;15.496;2023-05-20T00:45:45;4.18;;;2.60;;
25721;SDS011;13578;53.450;15.496;2023-05-20T00:48:46;3.55;;;2.28;;
25721;SDS011;13578;53.450;15.496;2023-05-20T00:51:47;3.58;;;2.20;;
25721;SDS011;13578;53.450;15.496;2023-05-20T00:54:49;9.85;;;2.50;;
25721;SDS011;13578;53.450;15.496;2023-05-20T00:57:51;5.18;;;2.95;;
25721;SDS011;13578;53.450;15.496;2023-05-20T01:00:52;8.10;;;2.45;;
25721;SDS011;13578;53.450;15.496;2023-05-20T01:03:53;4.97;;;2.88;;
25721;SDS011;13578;53.450;15.496;2023-05-20T01:06:53;9.75;;;2.53;;
25721;SDS011;13578;53.450;15.496;2023-05-20T01:09:54;4.13;;;2.38;;
25721;SDS011;13578;53.450;15.496;2023-05-20T01:12:56;7.07;;;2.78;;
25721;SDS011;13578;53.450;15.496;2023-05-20T01:15:59;4.57;;;2.35;;
25721;SDS011;13578;53.450;15.496;2023-05-20T01:19:01;3.70;;;2.65;;
25721;SDS011;13578;53.450;15.496;2023-05-20T01:22:04;6.30;;;2.22;;
25721;SDS011;13578;53.450;15.496;2023-05-20T01:25:07;2.83;;;2.42;;
25721;SDS011;13578;53.450;15.496;2023-05-20T01:28:08;5.78;;;2.10;;
25721;SDS011;13578;53.450;15.496;2023-05-20T01:31:25;6.55;;;2.53;;
25721;SDS011;13578;53.450;15.496;2023-05-20T01:34:32;5.55;;;3.10;;
25721;SDS011;13578;53.450;15.496;2023-05-20T01:37:35;3.47;;;2.10;;
25721;SDS011;13578;53.450;15.496;2023-05-20T01:40:39;3.20;;;2.55;;
25721;SDS011;13578;53.450;15.496;2023-05-20T01:43:42;3.65;;;2.10;;
25721;SDS011;13578;53.450;15.496;2023-05-20T01:46:47;4.28;;;2.38;;
25721;SDS011;13578;53.450;15.496;2023-05-20T01:49:48;3.60;;;2.40;;
25721;SDS011;13578;53.450;15.496;2023-05-20T01:52:52;2.75;;;1.90;;
25721;SDS011;13578;53.450;15.496;2023-05-20T01:55:52;8.23;;;2.15;;
25721;SDS011;13578;53.450;15.496;2023-05-20T01:58:53;3.17;;;2.42;;
25721;SDS011;13578;53.450;15.496;2023-05-20T02:01:53;2.90;;;2.17;;
25721;SDS011;13578;53.450;15.496;2023-05-20T02:04:54;4.10;;;1.95;;
25721;SDS011;13578;53.450;15.496;2023-05-20T02:07:55;3.20;;;2.40;;
25721;SDS011;13578;53.450;15.496;2023-05-20T02:10:55;3.70;;;2.05;;
25721;SDS011;13578;53.450;15.496;2023-05-20T02:13:56;5.30;;;2.53;;
25721;SDS011;13578;53.450;15.496;2023-05-20T02:16:57;7.97;;;3.47;;
25721;SDS011;13578;53.450;15.496;2023-05-20T02:19:58;4.93;;;2.13;;
25721;SDS011;13578;53.450;15.496;2023-05-20T02:22:58;3.30;;;2.20;;
25721;SDS011;13578;53.450;15.496;2023-05-20T02:25:59;4.93;;;2.58;;
25721;SDS011;13578;53.450;15.496;2023-05-20T02:29:00;6.63;;;2.40;;
25721;SDS011;13578;53.450;15.496;2023-05-20T02:32:00;5.38;;;2.22;;
25721;SDS011;13578;53.450;15.496;2023-05-20T02:35:01;8.07;;;2.70;;
25721;SDS011;13578;53.450;15.496;2023-05-20T02:38:02;5.78;;;2.22;;
25721;SDS011;13578;53.450;15.496;2023-05-20T02:41:02;4.50;;;2.70;;
25721;SDS011;13578;53.450;15.496;2023-05-20T02:44:03;5.45;;;2.28;;
25721;SDS011;13578;53.450;15.496;2023-05-20T02:47:04;3.38;;;2.13;;
25721;SDS011;13578;53.450;15.496;2023-05-20T02:50:05;4.78;;;2.53;;
25721;SDS011;13578;53.450;15.496;2023-05-20T02:53:06;4.68;;;2.38;;
25721;SDS011;13578;53.450;15.496;2023-05-20T02:56:07;4.80;;;2.33;;
25721;SDS011;13578;53.450;15.496;2023-05-20T02:59:08;6.72;;;2.75;;
25721;SDS011;13578;53.450;15.496;2023-05-20T03:02:08;8.57;;;2.20;;
25721;SDS011;13578;53.450;15.496;2023-05-20T03:05:09;6.03;;;2.85;;
25721;SDS011;13578;53.450;15.496;2023-05-20T03:08:11;5.75;;;3.17;;
25721;SDS011;13578;53.450;15.496;2023-05-20T03:11:12;4.97;;;1.98;;
25721;SDS011;13578;53.450;15.496;2023-05-20T03:14:13;6.35;;;2.30;;
25721;SDS011;13578;53.450;15.496;2023-05-20T03:17:13;6.93;;;2.42;;
25721;SDS011;13578;53.450;15.496;2023-05-20T03:20:14;10.48;;;2.72;;
25721;SDS011;13578;53.450;15.496;2023-05-20T03:23:16;4.05;;;2.60;;
25721;SDS011;13578;53.450;15.496;2023-05-20T03:26:17;5.60;;;2.28;;
25721;SDS011;13578;53.450;15.496;2023-05-20T03:29:17;6.70;;;2.13;;
25721;SDS011;13578;53.450;15.496;2023-05-20T03:32:18;2.80;;;2.15;;
25721;SDS011;13578;53.450;15.496;2023-05-20T03:35:19;4.60;;;2.33;;
25721;SDS011;13578;53.450;15.496;2023-05-20T03:38:20;6.30;;;2.20;;
25721;SDS011;13578;53.450;15.496;2023-05-20T03:41:21;4.25;;;1.95;;
25721;SDS011;13578;53.450;15.496;2023-05-20T03:44:22;3.65;;;1.90;;
25721;SDS011;13578;53.450;15.496;2023-05-20T03:47:22;6.65;;;2.33;;
25721;SDS011;13578;53.450;15.496;2023-05-20T03:50:23;2.88;;;2.10;;
25721;SDS011;13578;53.450;15.496;2023-05-20T03:53:24;2.53;;;1.98;;
25721;SDS011;13578;53.450;15.496;2023-05-20T03:56:24;6.10;;;1.85;;
25721;SDS011;13578;53.450;15.496;2023-05-20T03:59:26;3.08;;;1.98;;
25721;SDS011;13578;53.450;15.496;2023-05-20T04:02:26;3.30;;;2.10;;
25721;SDS011;13578;53.450;15.496;2023-05-20T04:05:27;3.22;;;2.00;;
25721;SDS011;13578;53.450;15.496;2023-05-20T04:08:28;2.95;;;2.15;;
25721;SDS011;13578;53.450;15.496;2023-05-20T04:11:29;3.72;;;1.92;;
25721;SDS011;13578;53.450;15.496;2023-05-20T04:14:30;4.10;;;1.92;;
25721;SDS011;13578;53.450;15.496;2023-05-20T04:17:34;5.88;;;2.20;;
25721;SDS011;13578;53.450;15.496;2023-05-20T04:20:37;4.53;;;2.20;;
25721;SDS011;13578;53.450;15.496;2023-05-20T04:23:40;12.60;;;2.20;;
25721;SDS011;13578;53.450;15.496;2023-05-20T04:26:41;6.07;;;2.10;;
25721;SDS011;13578;53.450;15.496;2023-05-20T04:29:42;3.60;;;1.85;;
25721;SDS011;13578;53.450;15.496;2023-05-20T04:32:45;8.85;;;2.38;;
25721;SDS011;13578;53.450;15.496;2023-05-20T04:35:47;3.17;;;1.98;;
25721;SDS011;13578;53.450;15.496;2023-05-20T04:38:47;4.13;;;2.40;;
25721;SDS011;13578;53.450;15.496;2023-05-20T04:41:48;3.40;;;1.73;;
25721;SDS011;13578;53.450;15.496;2023-05-20T04:44:50;2.65;;;2.03;;
25721;SDS011;13578;53.450;15.496;2023-05-20T04:47:50;6.65;;;2.53;;
25721;SDS011;13578;53.450;15.496;2023-05-20T04:50:52;2.92;;;1.67;;
25721;SDS011;13578;53.450;15.496;2023-05-20T04:53:53;2.72;;;1.73;;
25721;SDS011;13578;53.450;15.496;2023-05-20T04:56:54;3.55;;;1.83;;
25721;SDS011;13578;53.450;15.496;2023-05-20T04:59:54;5.30;;;2.33;;
25721;SDS011;13578;53.450;15.496;2023-05-20T05:02:57;5.40;;;1.60;;
25721;SDS011;13578;53.450;15.496;2023-05-20T05:06:00;2.95;;;2.15;;
25721;SDS011;13578;53.450;15.496;2023-05-20T05:09:00;3.95;;;2.25;;
25721;SDS011;13578;53.450;15.496;2023-05-20T05:12:01;5.63;;;2.42;;
25721;SDS011;13578;53.450;15.496;2023-05-20T05:15:02;3.13;;;2.03;;
25721;SDS011;13578;53.450;15.496;2023-05-20T05:18:03;2.95;;;1.73;;
25721;SDS011;13578;53.450;15.496;2023-05-20T05:21:04;6.22;;;1.73;;
25721;SDS011;13578;53.450;15.496;2023-05-20T05:24:05;5.75;;;1.92;;
25721;SDS011;13578;53.450;15.496;2023-05-20T05:27:06;7.93;;;2.47;;
25721;SDS011;13578;53.450;15.496;2023-05-20T05:30:07;6.45;;;2.20;;
25721;SDS011;13578;53.450;15.496;2023-05-20T05:33:08;6.88;;;1.80;;
25721;SDS011;13578;53.450;15.496;2023-05-20T05:36:08;5.45;;;2.50;;
25721;SDS011;13578;53.450;15.496;2023-05-20T05:39:09;5.65;;;2.40;;
25721;SDS011;13578;53.450;15.496;2023-05-20T05:42:10;3.85;;;1.95;;
25721;SDS011;13578;53.450;15.496;2023-05-20T05:45:10;5.97;;;2.55;;
25721;SDS011;13578;53.450;15.496;2023-05-20T05:48:11;5.15;;;2.08;;
25721;SDS011;13578;53.450;15.496;2023-05-20T05:51:12;7.20;;;2.22;;
25721;SDS011;13578;53.450;15.496;2023-05-20T05:54:12;3.72;;;2.10;;
25721;SDS011;13578;53.450;15.496;2023-05-20T05:57:13;3.28;;;1.70;;
25721;SDS011;13578;53.450;15.496;2023-05-20T06:00:14;2.42;;;1.88;;
25721;SDS011;13578;53.450;15.496;2023-05-20T06:03:15;9.63;;;2.97;;
25721;SDS011;13578;53.450;15.496;2023-05-20T06:06:15;4.38;;;1.67;;
25721;SDS011;13578;53.450;15.496;2023-05-20T06:09:16;6.00;;;2.13;;
25721;SDS011;13578;53.450;15.496;2023-05-20T06:12:17;4.63;;;1.83;;
25721;SDS011;13578;53.450;15.496;2023-05-20T06:15:17;5.38;;;1.83;;
25721;SDS011;13578;53.450;15.496;2023-05-20T06:18:18;4.95;;;1.65;;
25721;SDS011;13578;53.450;15.496;2023-05-20T06:21:18;2.80;;;1.60;;
25721;SDS011;13578;53.450;15.496;2023-05-20T06:24:19;4.55;;;1.83;;
25721;SDS011;13578;53.450;15.496;2023-05-20T06:27:20;9.50;;;2.10;;
25721;SDS011;13578;53.450;15.496;2023-05-20T06:30:20;2.90;;;1.55;;
25721;SDS011;13578;53.450;15.496;2023-05-20T06:33:24;8.80;;;1.60;;
25721;SDS011;13578;53.450;15.496;2023-05-20T06:36:26;4.97;;;1.70;;
25721;SDS011;13578;53.450;15.496;2023-05-20T06:39:27;4.43;;;1.67;;
25721;SDS011;13578;53.450;15.496;2023-05-20T06:42:28;2.65;;;1.52;;
25721;SDS011;13578;53.450;15.496;2023-05-20T06:45:28;2.92;;;1.65;;
25721;SDS011;13578;53.450;15.496;2023-05-20T06:48:29;3.75;;;1.40;;
25721;SDS011;13578;53.450;15.496;2023-05-20T06:51:29;26.05;;;2.15;;
25721;SDS011;13578;53.450;15.496;2023-05-20T06:54:30;4.13;;;1.60;;
25721;SDS011;13578;53.450;15.496;2023-05-20T06:57:33;5.15;;;1.40;;
25721;SDS011;13578;53.450;15.496;2023-05-20T07:00:33;7.97;;;2.53;;
25721;SDS011;13578;53.450;15.496;2023-05-20T07:03:34;4.35;;;1.50;;
25721;SDS011;13578;53.450;15.496;2023-05-20T07:06:35;5.28;;;1.60;;
25721;SDS011;13578;53.450;15.496;2023-05-20T07:09:35;2.92;;;1.60;;
25721;SDS011;13578;53.450;15.496;2023-05-20T07:12:36;2.25;;;1.38;;
25721;SDS011;13578;53.450;15.496;2023-05-20T07:15:36;2.60;;;1.83;;
25721;SDS011;13578;53.450;15.496;2023-05-20T07:18:37;3.97;;;1.80;;
25721;SDS011;13578;53.450;15.496;2023-05-20T07:21:38;4.03;;;2.03;;
25721;SDS011;13578;53.450;15.496;2023-05-20T07:24:39;3.58;;;1.67;;
25721;SDS011;13578;53.450;15.496;2023-05-20T07:27:39;2.30;;;1.52;;
25721;SDS011;13578;53.450;15.496;2023-05-20T07:30:40;2.28;;;1.35;;
25721;SDS011;13578;53.450;15.496;2023-05-20T07:33:41;4.20;;;1.67;;
25721;SDS011;13578;53.450;15.496;2023-05-20T07:36:41;5.03;;;1.50;;
25721;SDS011;13578;53.450;15.496;2023-05-20T07:39:42;4.60;;;2.15;;
25721;SDS011;13578;53.450;15.496;2023-05-20T07:42:43;2.72;;;1.45;;
25721;SDS011;13578;53.450;15.496;2023-05-20T07:45:44;2.83;;;1.70;;
25721;SDS011;13578;53.450;15.496;2023-05-20T07:48:44;2.10;;;1.48;;
25721;SDS011;13578;53.450;15.496;2023-05-20T07:51:45;3.00;;;1.48;;
25721;SDS011;13578;53.450;15.496;2023-05-20T07:54:46;4.53;;;1.90;;
25721;SDS011;13578;53.450;15.496;2023-05-20T07:57:46;3.78;;;1.13;;
25721;SDS011;13578;53.450;15.496;2023-05-20T08:00:47;5.28;;;1.67;;
25721;SDS011;13578;53.450;15.496;2023-05-20T08:03:48;3.60;;;1.38;;
25721;SDS011;13578;53.450;15.496;2023-05-20T08:06:48;3.35;;;1.60;;
25721;SDS011;13578;53.450;15.496;2023-05-20T08:09:49;3.97;;;1.63;;
25721;SDS011;13578;53.450;15.496;2023-05-20T08:12:50;3.55;;;1.50;;
25721;SDS011;13578;53.450;15.496;2023-05-20T08:15:51;3.35;;;1.40;;
25721;SDS011;13578;53.450;15.496;2023-05-20T08:18:55;5.15;;;1.90;;
25721;SDS011;13578;53.450;15.496;2023-05-20T08:21:56;3.15;;;1.63;;
25721;SDS011;13578;53.450;15.496;2023-05-20T08:24:57;1.95;;;1.30;;
25721;SDS011;13578;53.450;15.496;2023-05-20T08:28:00;2.58;;;1.35;;
25721;SDS011;13578;53.450;15.496;2023-05-20T08:31:03;2.90;;;1.58;;
25721;SDS011;13578;53.450;15.496;2023-05-20T08:34:03;5.57;;;1.45;;
25721;SDS011;13578;53.450;15.496;2023-05-20T08:37:04;7.53;;;1.92;;
25721;SDS011;13578;53.450;15.496;2023-05-20T08:40:05;3.55;;;1.65;;
25721;SDS011;13578;53.450;15.496;2023-05-20T08:43:08;3.75;;;1.52;;
25721;SDS011;13578;53.450;15.496;2023-05-20T08:46:09;5.15;;;1.58;;
25721;SDS011;13578;53.450;15.496;2023-05-20T08:49:11;3.60;;;1.65;;
25721;SDS011;13578;53.450;15.496;2023-05-20T08:52:11;6.35;;;1.67;;
25721;SDS011;13578;53.450;15.496;2023-05-20T08:58:36;4.60;;;1.63;;
25721;SDS011;13578;53.450;15.496;2023-05-20T09:01:40;11.18;;;2.03;;
25721;SDS011;13578;53.450;15.496;2023-05-20T09:04:44;4.82;;;1.70;;
25721;SDS011;13578;53.450;15.496;2023-05-20T09:07:45;4.50;;;2.00;;
25721;SDS011;13578;53.450;15.496;2023-05-20T09:10:46;3.25;;;1.30;;
25721;SDS011;13578;53.450;15.496;2023-05-20T09:13:46;2.38;;;1.40;;
25721;SDS011;13578;53.450;15.496;2023-05-20T09:16:49;6.05;;;1.35;;
25721;SDS011;13578;53.450;15.496;2023-05-20T09:19:51;13.73;;;2.85;;
25721;SDS011;13578;53.450;15.496;2023-05-20T09:22:52;3.17;;;1.20;;
25721;SDS011;13578;53.450;15.496;2023-05-20T09:25:53;4.20;;;1.35;;
25721;SDS011;13578;53.450;15.496;2023-05-20T09:28:56;3.28;;;1.25;;
25721;SDS011;13578;53.450;15.496;2023-05-20T09:32:00;5.72;;;1.67;;
25721;SDS011;13578;53.450;15.496;2023-05-20T09:35:01;5.25;;;1.50;;
25721;SDS011;13578;53.450;15.496;2023-05-20T09:38:06;2.05;;;1.10;;
25721;SDS011;13578;53.450;15.496;2023-05-20T09:41:10;5.88;;;1.70;;
25721;SDS011;13578;53.450;15.496;2023-05-20T09:44:12;4.13;;;1.65;;
25721;SDS011;13578;53.450;15.496;2023-05-20T09:47:15;4.15;;;1.75;;
25721;SDS011;13578;53.450;15.496;2023-05-20T09:50:17;4.03;;;1.42;;
25721;SDS011;13578;53.450;15.496;2023-05-20T09:53:20;5.78;;;1.48;;
25721;SDS011;13578;53.450;15.496;2023-05-20T09:56:22;11.35;;;1.10;;
25721;SDS011;13578;53.450;15.496;2023-05-20T09:59:24;5.05;;;0.85;;
25721;SDS011;13578;53.450;15.496;2023-05-20T10:02:26;2.85;;;1.30;;
25721;SDS011;13578;53.450;15.496;2023-05-20T10:05:38;3.25;;;1.27;;
25721;SDS011;13578;53.450;15.496;2023-05-20T10:12:05;3.17;;;1.55;;
25721;SDS011;13578;53.450;15.496;2023-05-20T10:15:26;2.28;;;0.90;;
25721;SDS011;13578;53.450;15.496;2023-05-20T10:21:38;10.15;;;2.15;;
25721;SDS011;13578;53.450;15.496;2023-05-20T10:24:41;2.88;;;1.52;;
25721;SDS011;13578;53.450;15.496;2023-05-20T10:27:44;2.33;;;1.08;;
25721;SDS011;13578;53.450;15.496;2023-05-20T10:30:48;3.00;;;1.38;;
25721;SDS011;13578;53.450;15.496;2023-05-20T10:33:51;4.20;;;1.23;;
25721;SDS011;13578;53.450;15.496;2023-05-20T10:40:04;2.22;;;1.13;;
25721;SDS011;13578;53.450;15.496;2023-05-20T10:43:10;2.53;;;1.17;;
25721;SDS011;13578;53.450;15.496;2023-05-20T10:46:16;6.60;;;1.20;;
25721;SDS011;13578;53.450;15.496;2023-05-20T10:49:18;4.85;;;1.75;;
25721;SDS011;13578;53.450;15.496;2023-05-20T10:52:21;4.30;;;1.17;;
25721;SDS011;13578;53.450;15.496;2023-05-20T10:55:23;6.50;;;1.35;;
25721;SDS011;13578;53.450;15.496;2023-05-20T10:58:24;3.85;;;1.40;;
25721;SDS011;13578;53.450;15.496;2023-05-20T11:01:25;2.13;;;1.30;;
25721;SDS011;13578;53.450;15.496;2023-05-20T11:04:26;2.97;;;1.30;;
25721;SDS011;13578;53.450;15.496;2023-05-20T11:07:29;3.13;;;1.13;;
25721;SDS011;13578;53.450;15.496;2023-05-20T11:10:32;5.40;;;1.00;;
25721;SDS011;13578;53.450;15.496;2023-05-20T11:13:35;4.90;;;1.57;;
25721;SDS011;13578;53.450;15.496;2023-05-20T11:16:36;5.75;;;1.35;;
25721;SDS011;13578;53.450;15.496;2023-05-20T11:19:37;3.03;;;0.90;;
25721;SDS011;13578;53.450;15.496;2023-05-20T11:22:38;3.42;;;1.17;;
25721;SDS011;13578;53.450;15.496;2023-05-20T11:25:39;5.78;;;1.23;;
25721;SDS011;13578;53.450;15.496;2023-05-20T11:28:40;3.55;;;1.35;;
25721;SDS011;13578;53.450;15.496;2023-05-20T11:31:41;3.22;;;1.10;;
25721;SDS011;13578;53.450;15.496;2023-05-20T11:34:42;6.13;;;1.80;;
25721;SDS011;13578;53.450;15.496;2023-05-20T11:37:42;4.32;;;1.13;;
25721;SDS011;13578;53.450;15.496;2023-05-20T11:40:44;2.58;;;1.10;;
25721;SDS011;13578;53.450;15.496;2023-05-20T11:43:59;4.25;;;1.40;;
25721;SDS011;13578;53.450;15.496;2023-05-20T11:47:00;7.50;;;2.17;;
25721;SDS011;13578;53.450;15.496;2023-05-20T11:50:02;3.33;;;1.00;;
25721;SDS011;13578;53.450;15.496;2023-05-20T11:53:04;5.05;;;1.13;;
25721;SDS011;13578;53.450;15.496;2023-05-20T11:56:05;3.78;;;0.90;;
25721;SDS011;13578;53.450;15.496;2023-05-20T11:59:07;3.95;;;0.82;;
25721;SDS011;13578;53.450;15.496;2023-05-20T12:02:08;4.22;;;1.27;;
25721;SDS011;13578;53.450;15.496;2023-05-20T12:05:09;1.70;;;0.82;;
25721;SDS011;13578;53.450;15.496;2023-05-20T12:08:10;3.97;;;1.15;;
25721;SDS011;13578;53.450;15.496;2023-05-20T12:11:11;3.53;;;0.95;;
25721;SDS011;13578;53.450;15.496;2023-05-20T12:14:11;5.60;;;1.05;;
25721;SDS011;13578;53.450;15.496;2023-05-20T12:17:12;1.83;;;0.85;;
25721;SDS011;13578;53.450;15.496;2023-05-20T12:20:13;2.88;;;1.48;;
25721;SDS011;13578;53.450;15.496;2023-05-20T12:23:15;2.10;;;1.10;;
25721;SDS011;13578;53.450;15.496;2023-05-20T12:26:16;3.25;;;1.25;;
25721;SDS011;13578;53.450;15.496;2023-05-20T12:29:17;6.60;;;2.20;;
25721;SDS011;13578;53.450;15.496;2023-05-20T12:32:17;3.60;;;1.02;;
25721;SDS011;13578;53.450;15.496;2023-05-20T12:35:24;6.85;;;1.20;;
25721;SDS011;13578;53.450;15.496;2023-05-20T12:38:35;2.60;;;1.10;;
25721;SDS011;13578;53.450;15.496;2023-05-20T12:41:36;3.60;;;1.13;;
25721;SDS011;13578;53.450;15.496;2023-05-20T12:44:36;6.55;;;1.15;;
25721;SDS011;13578;53.450;15.496;2023-05-20T12:47:37;3.10;;;0.95;;
25721;SDS011;13578;53.450;15.496;2023-05-20T12:50:38;2.45;;;1.00;;
25721;SDS011;13578;53.450;15.496;2023-05-20T12:53:38;7.38;;;0.95;;
25721;SDS011;13578;53.450;15.496;2023-05-20T12:56:39;3.55;;;1.05;;
25721;SDS011;13578;53.450;15.496;2023-05-20T12:59:40;1.58;;;0.70;;
25721;SDS011;13578;53.450;15.496;2023-05-20T13:02:41;1.75;;;0.85;;
25721;SDS011;13578;53.450;15.496;2023-05-20T13:05:42;1.83;;;0.82;;
25721;SDS011;13578;53.450;15.496;2023-05-20T13:08:43;1.52;;;0.75;;
25721;SDS011;13578;53.450;15.496;2023-05-20T13:11:44;2.58;;;0.93;;
25721;SDS011;13578;53.450;15.496;2023-05-20T13:14:45;2.95;;;0.73;;
25721;SDS011;13578;53.450;15.496;2023-05-20T13:17:45;2.83;;;1.30;;
25721;SDS011;13578;53.450;15.496;2023-05-20T13:20:46;3.25;;;1.30;;
25721;SDS011;13578;53.450;15.496;2023-05-20T13:23:47;2.33;;;1.10;;
25721;SDS011;13578;53.450;15.496;2023-05-20T13:26:47;7.85;;;1.00;;
25721;SDS011;13578;53.450;15.496;2023-05-20T13:29:48;3.55;;;1.00;;
25721;SDS011;13578;53.450;15.496;2023-05-20T13:32:48;2.08;;;0.90;;
25721;SDS011;13578;53.450;15.496;2023-05-20T13:35:50;1.58;;;0.82;;
25721;SDS011;13578;53.450;15.496;2023-05-20T13:38:54;2.42;;;0.80;;
25721;SDS011;13578;53.450;15.496;2023-05-20T13:41:55;1.77;;;0.70;;
25721;SDS011;13578;53.450;15.496;2023-05-20T13:44:56;2.17;;;0.73;;
25721;SDS011;13578;53.450;15.496;2023-05-20T13:47:56;2.92;;;1.23;;
25721;SDS011;13578;53.450;15.496;2023-05-20T13:50:57;3.25;;;1.20;;
25721;SDS011;13578;53.450;15.496;2023-05-20T13:53:58;2.85;;;1.25;;
25721;SDS011;13578;53.450;15.496;2023-05-20T13:56:58;1.65;;;1.00;;
25721;SDS011;13578;53.450;15.496;2023-05-20T14:00:00;3.42;;;1.08;;
25721;SDS011;13578;53.450;15.496;2023-05-20T14:03:01;3.25;;;0.80;;
25721;SDS011;13578;53.450;15.496;2023-05-20T14:06:03;4.47;;;1.48;;
25721;SDS011;13578;53.450;15.496;2023-05-20T14:09:05;4.03;;;0.85;;
25721;SDS011;13578;53.450;15.496;2023-05-20T14:12:10;2.28;;;0.60;;
25721;SDS011;13578;53.450;15.496;2023-05-20T14:15:16;4.03;;;1.00;;
25721;SDS011;13578;53.450;15.496;2023-05-20T14:18:25;10.63;;;0.90;;
25721;SDS011;13578;53.450;15.496;2023-05-20T14:21:25;3.05;;;0.98;;
25721;SDS011;13578;53.450;15.496;2023-05-20T14:24:26;2.28;;;0.90;;
25721;SDS011;13578;53.450;15.496;2023-05-20T14:27:28;10.07;;;1.48;;
25721;SDS011;13578;53.450;15.496;2023-05-20T14:30:28;5.80;;;1.42;;
25721;SDS011;13578;53.450;15.496;2023-05-20T14:33:29;2.28;;;0.93;;
25721;SDS011;13578;53.450;15.496;2023-05-20T14:36:30;2.72;;;1.08;;
25721;SDS011;13578;53.450;15.496;2023-05-20T14:39:31;1.85;;;0.63;;
25721;SDS011;13578;53.450;15.496;2023-05-20T14:42:32;8.88;;;1.15;;
25721;SDS011;13578;53.450;15.496;2023-05-20T14:45:32;2.47;;;0.70;;
25721;SDS011;13578;53.450;15.496;2023-05-20T14:48:33;2.35;;;0.80;;
25721;SDS011;13578;53.450;15.496;2023-05-20T14:51:34;1.77;;;0.88;;
25721;SDS011;13578;53.450;15.496;2023-05-20T14:54:34;3.63;;;0.90;;
25721;SDS011;13578;53.450;15.496;2023-05-20T14:57:35;1.55;;;0.75;;
25721;SDS011;13578;53.450;15.496;2023-05-20T15:00:35;1.42;;;0.60;;
25721;SDS011;13578;53.450;15.496;2023-05-20T15:03:36;2.75;;;0.88;;
25721;SDS011;13578;53.450;15.496;2023-05-20T15:06:37;3.35;;;1.10;;
25721;SDS011;13578;53.450;15.496;2023-05-20T15:09:37;1.88;;;0.60;;
25721;SDS011;13578;53.450;15.496;2023-05-20T15:12:38;5.00;;;0.85;;
25721;SDS011;13578;53.450;15.496;2023-05-20T15:15:39;1.73;;;0.75;;
25721;SDS011;13578;53.450;15.496;2023-05-20T15:18:40;1.23;;;0.47;;
25721;SDS011;13578;53.450;15.496;2023-05-20T15:21:40;5.43;;;1.25;;
25721;SDS011;13578;53.450;15.496;2023-05-20T15:24:41;1.63;;;0.80;;
25721;SDS011;13578;53.450;15.496;2023-05-20T15:27:42;2.55;;;0.75;;
25721;SDS011;13578;53.450;15.496;2023-05-20T15:30:42;2.45;;;0.88;;
25721;SDS011;13578;53.450;15.496;2023-05-20T15:33:43;2.38;;;0.95;;
25721;SDS011;13578;53.450;15.496;2023-05-20T15:36:43;4.20;;;1.08;;
25721;SDS011;13578;53.450;15.496;2023-05-20T15:39:44;2.13;;;0.98;;
25721;SDS011;13578;53.450;15.496;2023-05-20T15:42:44;2.65;;;1.05;;
25721;SDS011;13578;53.450;15.496;2023-05-20T15:45:46;1.58;;;0.75;;
25721;SDS011;13578;53.450;15.496;2023-05-20T15:48:47;2.65;;;1.10;;
25721;SDS011;13578;53.450;15.496;2023-05-20T15:51:47;3.50;;;1.30;;
25721;SDS011;13578;53.450;15.496;2023-05-20T15:54:48;2.17;;;0.98;;
25721;SDS011;13578;53.450;15.496;2023-05-20T15:57:49;2.25;;;0.82;;
25721;SDS011;13578;53.450;15.496;2023-05-20T16:00:50;4.38;;;0.70;;
25721;SDS011;13578;53.450;15.496;2023-05-20T16:03:51;1.50;;;0.75;;
25721;SDS011;13578;53.450;15.496;2023-05-20T16:06:51;7.22;;;0.70;;
25721;SDS011;13578;53.450;15.496;2023-05-20T16:09:52;2.35;;;0.68;;
25721;SDS011;13578;53.450;15.496;2023-05-20T16:12:53;1.88;;;1.00;;
25721;SDS011;13578;53.450;15.496;2023-05-20T16:15:53;2.50;;;1.05;;
25721;SDS011;13578;53.450;15.496;2023-05-20T16:18:56;2.25;;;0.93;;
25721;SDS011;13578;53.450;15.496;2023-05-20T16:21:57;3.97;;;0.70;;
25721;SDS011;13578;53.450;15.496;2023-05-20T16:24:58;3.05;;;1.05;;
25721;SDS011;13578;53.450;15.496;2023-05-20T16:27:59;3.70;;;1.60;;
25721;SDS011;13578;53.450;15.496;2023-05-20T16:31:00;2.28;;;1.08;;
25721;SDS011;13578;53.450;15.496;2023-05-20T16:34:01;2.10;;;0.93;;
25721;SDS011;13578;53.450;15.496;2023-05-20T16:37:03;4.68;;;1.13;;
25721;SDS011;13578;53.450;15.496;2023-05-20T16:40:04;4.38;;;1.45;;
25721;SDS011;13578;53.450;15.496;2023-05-20T16:43:06;2.30;;;0.85;;
25721;SDS011;13578;53.450;15.496;2023-05-20T16:46:06;2.78;;;0.77;;
25721;SDS011;13578;53.450;15.496;2023-05-20T16:49:07;2.67;;;1.65;;
25721;SDS011;13578;53.450;15.496;2023-05-20T16:52:08;2.20;;;1.23;;
25721;SDS011;13578;53.450;15.496;2023-05-20T16:55:08;3.10;;;1.00;;
25721;SDS011;13578;53.450;15.496;2023-05-20T16:58:09;3.65;;;0.90;;
25721;SDS011;13578;53.450;15.496;2023-05-20T17:01:10;6.55;;;1.17;;
25721;SDS011;13578;53.450;15.496;2023-05-20T17:04:11;3.03;;;1.02;;
25721;SDS011;13578;53.450;15.496;2023-05-20T17:07:12;2.00;;;1.05;;
25721;SDS011;13578;53.450;15.496;2023-05-20T17:10:12;2.47;;;0.93;;
25721;SDS011;13578;53.450;15.496;2023-05-20T17:13:13;1.90;;;0.85;;
25721;SDS011;13578;53.450;15.496;2023-05-20T17:16:13;2.33;;;0.65;;
25721;SDS011;13578;53.450;15.496;2023-05-20T17:19:14;1.83;;;0.68;;
25721;SDS011;13578;53.450;15.496;2023-05-20T17:22:15;4.32;;;0.77;;
25721;SDS011;13578;53.450;15.496;2023-05-20T17:25:15;2.20;;;0.90;;
25721;SDS011;13578;53.450;15.496;2023-05-20T17:28:16;2.60;;;1.13;;
25721;SDS011;13578;53.450;15.496;2023-05-20T17:31:17;1.42;;;0.70;;
25721;SDS011;13578;53.450;15.496;2023-05-20T17:34:17;4.35;;;1.70;;
25721;SDS011;13578;53.450;15.496;2023-05-20T17:37:18;1.90;;;0.88;;
25721;SDS011;13578;53.450;15.496;2023-05-20T17:40:18;1.60;;;0.80;;
25721;SDS011;13578;53.450;15.496;2023-05-20T17:43:20;5.60;;;0.82;;
25721;SDS011;13578;53.450;15.496;2023-05-20T17:46:21;2.22;;;1.05;;
25721;SDS011;13578;53.450;15.496;2023-05-20T17:49:22;11.68;;;1.38;;
25721;SDS011;13578;53.450;15.496;2023-05-20T17:52:22;3.83;;;1.73;;
25721;SDS011;13578;53.450;15.496;2023-05-20T17:55:23;5.55;;;1.30;;
25721;SDS011;13578;53.450;15.496;2023-05-20T17:58:23;2.47;;;1.52;;
25721;SDS011;13578;53.450;15.496;2023-05-20T18:01:25;4.10;;;1.33;;
25721;SDS011;13578;53.450;15.496;2023-05-20T18:04:26;2.75;;;1.20;;
25721;SDS011;13578;53.450;15.496;2023-05-20T18:07:26;2.22;;;1.00;;